Time;durP1;ratioP1;P1;durP2;ratioP2;P2;SDS_P1;SDS_P2;PMS_P1;PMS_P2;Temp;Humidity;BMP_temperature;BMP_pressure;BME280_temperature;BME280_humidity;BME280_pressure;Samples;Min_cycle;Max_cycle;Signal;HPM_P1;HPM_P2
2023/03/13 00:00:15;;;;;;;8.18;5.07;;;;;;;2.76;44.26;95188.25;5107404;28;20510;-69
2023/03/13 00:02:40;;;;;;;7.00;4.95;;;;;;;2.79;44.09;95184.75;5105405;28;20023;-71
2023/03/13 00:05:06;;;;;;;6.28;4.50;;;;;;;2.80;44.14;95186.28;5107624;28;20500;-70
2023/03/13 00:07:31;;;;;;;6.95;4.38;;;;;;;2.78;44.11;95185.13;5105727;28;20035;-70
2023/03/13 00:09:56;;;;;;;6.80;4.90;;;;;;;2.76;43.95;95188.25;5107353;27;20161;-72
2023/03/13 00:12:22;;;;;;;6.47;4.25;;;;;;;2.75;44.16;95183.16;5105386;28;20027;-70
2023/03/13 00:14:47;;;;;;;8.63;4.32;;;;;;;2.72;44.17;95179.28;5107264;28;20106;-70
2023/03/13 00:17:13;;;;;;;5.57;3.88;;;;;;;2.71;44.01;95190.53;5105338;28;20047;-71
2023/03/13 00:19:38;;;;;;;4.80;4.03;;;;;;;2.70;44.06;95199.84;5105742;28;20583;-71
2023/03/13 00:22:03;;;;;;;5.65;4.15;;;;;;;2.53;44.73;95206.72;5107008;28;20098;-70
2023/03/13 00:24:29;;;;;;;6.03;4.00;;;;;;;2.54;44.56;95198.19;5105370;28;20031;-69
2023/03/13 00:26:54;;;;;;;6.03;4.32;;;;;;;2.55;44.43;95207.09;5105777;28;20043;-70
2023/03/13 00:29:19;;;;;;;6.15;3.75;;;;;;;2.45;44.47;95194.25;5106557;27;20045;-70
2023/03/13 00:31:45;;;;;;;5.03;4.22;;;;;;;2.49;44.35;95205.91;5106740;28;20042;-70
2023/03/13 00:34:10;;;;;;;5.65;3.85;;;;;;;2.43;44.63;95205.47;5106835;28;20026;-70
2023/03/13 00:36:36;;;;;;;6.20;4.20;;;;;;;2.38;44.71;95201.19;5105708;28;20031;-70
2023/03/13 00:39:03;;;;;;;5.13;3.75;;;;;;;2.33;45.01;95198.81;5107817;28;20023;-72
2023/03/13 00:41:31;;;;;;;6.45;4.50;;;;;;;2.31;45.09;95205.78;5107199;28;20951;-70
2023/03/13 00:43:56;;;;;;;6.93;4.20;;;;;;;2.25;45.18;95199.94;5088446;28;20058;-70
2023/03/13 00:46:24;;;;;;;5.85;4.50;;;;;;;2.20;45.27;95208.41;5106963;28;20364;-70
2023/03/13 00:48:50;;;;;;;5.85;4.10;;;;;;;2.15;45.30;95208.75;5105232;28;20146;-70
2023/03/13 00:51:16;;;;;;;6.38;4.57;;;;;;;2.21;45.07;95204.56;5106256;28;20177;-71
2023/03/13 00:53:42;;;;;;;5.63;4.28;;;;;;;2.23;45.25;95202.22;5104855;28;20028;-71
2023/03/13 00:56:15;;;;;;;7.35;4.63;;;;;;;2.25;45.16;95207.31;5106235;28;20020;-69
2023/03/13 00:58:42;;;;;;;6.22;4.53;;;;;;;2.25;45.05;95202.66;5104941;28;20456;-70
2023/03/13 01:01:17;;;;;;;5.65;4.10;;;;;;;2.22;44.81;95197.97;5104946;28;20027;-71
2023/03/13 01:03:45;;;;;;;4.82;3.95;;;;;;;2.24;45.01;95198.38;5104827;28;20035;-70
2023/03/13 01:06:13;;;;;;;6.60;4.03;;;;;;;2.31;44.96;95193.00;5104988;28;20031;-70
2023/03/13 01:08:38;;;;;;;6.25;4.28;;;;;;;2.32;44.80;95188.34;5105992;28;20023;-69
2023/03/13 01:11:09;;;;;;;5.40;4.10;;;;;;;2.37;44.61;95188.78;5104592;28;20027;-71
2023/03/13 01:13:35;;;;;;;5.43;3.83;;;;;;;2.44;44.65;95195.41;5103632;28;20110;-71
2023/03/13 01:16:05;;;;;;;6.30;3.88;;;;;;;2.43;44.63;95185.72;5104464;28;20103;-70
2023/03/13 01:18:32;;;;;;;6.70;4.82;;;;;;;2.40;44.58;95188.00;5105734;27;20106;-70
2023/03/13 01:20:58;;;;;;;7.18;4.22;;;;;;;2.38;44.59;95194.97;5105899;28;20030;-71
2023/03/13 01:23:24;;;;;;;5.90;4.32;;;;;;;2.45;44.55;95191.53;5105926;28;20019;-71
2023/03/13 01:25:50;;;;;;;5.80;3.83;;;;;;;2.51;44.42;95203.59;5105478;27;20160;-71
2023/03/13 01:28:15;;;;;;;5.95;4.07;;;;;;;2.56;44.26;95212.16;5104275;28;20119;-70
2023/03/13 01:30:41;;;;;;;6.03;4.53;;;;;;;2.55;44.20;95204.41;5105315;28;20024;-70
2023/03/13 01:33:06;;;;;;;4.80;4.25;;;;;;;2.61;44.34;95209.09;5105646;28;20072;-71
2023/03/13 01:35:31;;;;;;;8.13;4.55;;;;;;;2.61;44.39;95211.03;5104002;28;20504;-69
2023/03/13 01:37:57;;;;;;;6.03;4.40;;;;;;;2.57;44.21;95216.41;5105726;28;20098;-71
2023/03/13 01:40:22;;;;;;;6.13;4.15;;;;;;;2.61;44.32;95213.72;5104166;28;20505;-70
2023/03/13 01:42:49;;;;;;;6.15;4.00;;;;;;;2.59;44.25;95210.63;5103922;28;20509;-71
2023/03/13 01:45:52;;;;;;;8.20;5.10;;;;;;;2.60;44.29;95209.47;5105772;28;20032;-70
2023/03/13 01:48:24;;;;;;;5.88;4.10;;;;;;;2.65;44.12;95211.84;5105265;28;20031;-71
2023/03/13 01:50:49;;;;;;;6.50;4.45;;;;;;;2.64;44.16;95213.00;5105240;28;20093;-70
2023/03/13 01:53:15;;;;;;;5.10;4.18;;;;;;;2.65;44.00;95211.84;5105322;28;20027;-71
2023/03/13 01:55:40;;;;;;;9.35;4.70;;;;;;;2.67;43.98;95215.72;5105037;28;20038;-71
2023/03/13 01:58:05;;;;;;;7.72;4.10;;;;;;;2.70;44.09;95219.63;5105448;28;20028;-70
2023/03/13 02:00:33;;;;;;;7.78;4.22;;;;;;;2.69;44.00;95215.31;5103503;28;20103;-71
2023/03/13 02:03:02;;;;;;;5.25;4.05;;;;;;;2.72;44.21;95214.56;5103490;28;20043;-71
2023/03/13 02:05:28;;;;;;;6.18;4.13;;;;;;;2.71;44.78;95204.09;5103648;28;20440;-70
2023/03/13 02:07:56;;;;;;;7.22;4.57;;;;;;;2.74;45.22;95209.53;5103598;28;20035;-70
2023/03/13 02:10:22;;;;;;;5.53;4.10;;;;;;;2.72;45.23;95209.16;5105023;28;20046;-70
2023/03/13 02:12:48;;;;;;;5.35;3.92;;;;;;;2.69;45.51;95220.75;5105092;28;20483;-71
2023/03/13 02:15:19;;;;;;;6.18;4.10;;;;;;;2.72;45.52;95230.09;5105180;28;20024;-70
2023/03/13 02:17:45;;;;;;;7.25;4.15;;;;;;;2.74;45.54;95230.47;5104447;28;20047;-71
2023/03/13 02:20:12;;;;;;;5.78;4.22;;;;;;;2.72;45.37;95241.72;5103609;28;20064;-70
2023/03/13 02:23:06;;;;;;;6.38;4.40;;;;;;;2.70;45.49;95235.91;5103388;28;20161;-71
2023/03/13 02:25:34;;;;;;;6.18;4.28;;;;;;;2.69;45.88;95231.59;5104719;28;20028;-71
2023/03/13 02:28:03;;;;;;;7.28;4.38;;;;;;;2.66;46.07;95240.53;5106045;28;20346;-70
2023/03/13 02:30:29;;;;;;;11.50;5.75;;;;;;;2.66;46.04;95243.25;5104649;28;20073;-70
2023/03/13 02:32:54;;;;;;;9.70;5.93;;;;;;;2.66;45.90;95246.72;5104563;28;20047;-71
2023/03/13 02:35:21;;;;;;;7.50;5.63;;;;;;;2.59;45.91;95259.50;5104728;28;20074;-70
2023/03/13 02:37:53;;;;;;;10.70;6.88;;;;;;;2.55;46.01;95258.69;5102954;28;20054;-69
2023/03/13 02:40:23;;;;;;;10.90;7.05;;;;;;;2.53;46.04;95266.44;5102980;28;20447;-71
2023/03/13 02:42:49;;;;;;;9.65;6.00;;;;;;;2.47;45.93;95274.13;5102854;28;20044;-71
2023/03/13 02:45:16;;;;;;;13.35;7.30;;;;;;;2.37;46.29;95281.03;5103557;28;20111;-70
2023/03/13 02:47:42;;;;;;;11.52;7.18;;;;;;;2.33;46.29;95284.88;5103193;28;20016;-70
2023/03/13 02:50:10;;;;;;;12.05;7.07;;;;;;;2.29;46.58;95282.09;5102983;28;20181;-70
2023/03/13 02:52:46;;;;;;;11.13;6.55;;;;;;;2.04;46.64;95262.13;5102871;28;20031;-70
2023/03/13 02:55:16;;;;;;;9.07;6.00;;;;;;;2.16;46.79;95286.28;5104487;28;20062;-70
2023/03/13 02:57:42;;;;;;;11.88;7.05;;;;;;;2.09;46.72;95283.50;5103042;28;20089;-70
2023/03/13 03:00:11;;;;;;;11.30;6.35;;;;;;;2.06;46.91;95278.81;5104289;28;20444;-70
2023/03/13 03:02:37;;;;;;;9.98;6.15;;;;;;;2.03;47.17;95280.34;5103336;28;20023;-70
2023/03/13 03:05:03;;;;;;;11.55;6.38;;;;;;;2.00;47.01;95286.50;5102737;28;20099;-71
2023/03/13 03:07:29;;;;;;;9.27;6.18;;;;;;;1.99;47.15;95284.16;5104847;28;20023;-70
2023/03/13 03:09:55;;;;;;;10.70;6.20;;;;;;;1.95;47.41;95281.44;5103994;28;20180;-70
2023/03/13 03:12:20;;;;;;;9.05;5.68;;;;;;;1.93;47.34;95297.28;5102709;28;20035;-71
2023/03/13 03:14:46;;;;;;;9.93;6.05;;;;;;;1.93;47.45;95296.50;5103033;28;20508;-71
2023/03/13 03:17:11;;;;;;;9.98;5.85;;;;;;;1.91;47.59;95304.25;5103124;28;20027;-70
2023/03/13 03:19:37;;;;;;;8.65;6.00;;;;;;;1.89;47.63;95317.38;5102853;28;20116;-70
2023/03/13 03:22:02;;;;;;;8.32;5.57;;;;;;;1.90;47.73;95327.09;5104077;28;20061;-69
2023/03/13 03:24:28;;;;;;;10.27;6.03;;;;;;;1.81;47.85;95327.38;5104560;28;20024;-69
2023/03/13 03:26:53;;;;;;;10.80;6.28;;;;;;;1.72;47.95;95319.53;5102455;28;20421;-72
2023/03/13 03:29:19;;;;;;;8.32;5.65;;;;;;;1.65;48.22;95318.66;5104302;28;20405;-71
2023/03/13 03:31:44;;;;;;;9.63;6.50;;;;;;;1.55;48.58;95310.06;5102602;28;20110;-71
2023/03/13 03:34:10;;;;;;;10.13;6.45;;;;;;;1.42;48.79;95306.00;5103927;28;20028;-70
2023/03/13 03:36:35;;;;;;;7.88;5.68;;;;;;;1.48;48.57;95320.00;5102716;28;20035;-69
2023/03/13 03:39:00;;;;;;;6.82;5.00;;;;;;;1.47;48.54;95327.38;5106072;28;20582;-70
2023/03/13 03:41:26;;;;;;;9.10;5.45;;;;;;;1.48;48.75;95339.75;5106060;28;20063;-70
2023/03/13 03:43:51;;;;;;;8.48;5.13;;;;;;;1.46;48.84;95347.47;5106694;28;20028;-70
2023/03/13 03:46:17;;;;;;;8.40;5.28;;;;;;;1.44;48.58;95349.78;5107729;27;20048;-70
2023/03/13 03:48:42;;;;;;;7.05;5.05;;;;;;;1.48;48.85;95349.81;5107644;28;20015;-70
2023/03/13 03:51:08;;;;;;;8.98;5.70;;;;;;;1.48;48.72;95358.72;5107315;28;20457;-70
2023/03/13 03:53:33;;;;;;;9.10;5.55;;;;;;;1.48;48.76;95355.25;5106685;28;20058;-71
2023/03/13 03:56:00;;;;;;;9.77;5.82;;;;;;;1.46;48.93;95354.84;5107500;28;20556;-71
2023/03/13 03:58:26;;;;;;;9.25;5.70;;;;;;;1.52;48.97;95364.19;5106220;28;20027;-70
2023/03/13 04:00:51;;;;;;;7.80;5.78;;;;;;;1.52;48.57;95356.84;5107460;28;20405;-70
2023/03/13 04:03:17;;;;;;;9.20;5.57;;;;;;;1.56;48.67;95365.03;5107768;28;20570;-70
2023/03/13 04:05:43;;;;;;;8.95;6.65;;;;;;;1.56;48.68;95367.75;5107238;28;20055;-70
2023/03/13 04:08:08;;;;;;;8.32;6.35;;;;;;;1.57;48.64;95369.31;5107023;28;20027;-70
2023/03/13 04:10:34;;;;;;;9.80;6.72;;;;;;;1.58;48.56;95379.75;5106844;28;20116;-70
2023/03/13 04:13:00;;;;;;;9.07;6.72;;;;;;;1.58;48.64;95384.41;5106313;28;20100;-71
2023/03/13 04:15:25;;;;;;;10.45;6.90;;;;;;;1.58;48.73;95377.06;5105731;28;20049;-70
2023/03/13 04:17:50;;;;;;;8.85;6.40;;;;;;;1.60;48.73;95384.81;5107047;28;20430;-69
2023/03/13 04:20:16;;;;;;;17.88;10.90;;;;;;;1.56;48.89;95384.00;5107077;28;20106;-70
2023/03/13 04:22:42;;;;;;;17.70;11.80;;;;;;;1.53;48.76;95387.44;5106817;28;20031;-69
2023/03/13 04:25:08;;;;;;;24.60;13.82;;;;;;;1.49;48.99;95384.69;5105811;28;20102;-71
2023/03/13 04:27:33;;;;;;;20.60;12.82;;;;;;;1.48;49.12;95393.16;5106827;28;20032;-71
2023/03/13 04:29:59;;;;;;;22.15;12.50;;;;;;;1.46;49.12;95398.19;5105547;28;20114;-70
2023/03/13 04:32:24;;;;;;;16.35;9.77;;;;;;;1.45;49.06;95396.63;5106327;28;20027;-70
2023/03/13 04:34:50;;;;;;;16.70;10.18;;;;;;;1.45;49.10;95410.97;5105639;28;20028;-69
2023/03/13 04:37:15;;;;;;;15.68;11.00;;;;;;;1.41;49.32;95414.75;5106741;28;20027;-70
2023/03/13 04:39:41;;;;;;;12.65;9.18;;;;;;;1.37;49.45;95430.94;5105427;28;20450;-70
2023/03/13 04:42:06;;;;;;;18.13;9.10;;;;;;;1.35;49.53;95433.25;5105022;28;20036;-71
2023/03/13 04:44:31;;;;;;;18.95;10.80;;;;;;;1.38;49.32;95432.53;5104969;28;20099;-70
2023/03/13 04:46:57;;;;;;;18.48;12.18;;;;;;;1.39;49.25;95438.72;5105414;28;20436;-70
2023/03/13 04:49:22;;;;;;;23.38;13.30;;;;;;;1.35;49.19;95435.19;5105874;28;20024;-70
2023/03/13 04:51:48;;;;;;;18.23;12.43;;;;;;;1.28;49.08;95438.56;5106631;28;20033;-70
2023/03/13 04:54:13;;;;;;;21.20;12.23;;;;;;;1.26;49.32;95433.53;5106350;28;20107;-70
2023/03/13 04:56:38;;;;;;;16.77;12.88;;;;;;;1.27;49.26;95442.44;5106572;28;20441;-69
2023/03/13 04:59:04;;;;;;;19.30;11.85;;;;;;;1.28;49.20;95441.28;5106900;28;20058;-71
2023/03/13 05:01:29;;;;;;;21.20;11.45;;;;;;;1.27;49.26;95437.78;5108110;27;20039;-70
2023/03/13 05:03:55;;;;;;;15.20;11.55;;;;;;;1.22;49.27;95432.69;5108567;28;20218;-70
2023/03/13 05:06:21;;;;;;;13.45;10.57;;;;;;;1.24;49.35;95427.69;5104606;28;20024;-70
2023/03/13 05:08:46;;;;;;;22.77;11.05;;;;;;;1.29;49.42;95432.78;5104911;28;20031;-71
2023/03/13 05:11:11;;;;;;;15.63;10.30;;;;;;;1.31;49.36;95435.13;5106094;28;20045;-70
2023/03/13 05:13:37;;;;;;;18.63;11.75;;;;;;;1.29;49.68;95443.63;5105907;27;20031;-70
2023/03/13 05:16:02;;;;;;;21.70;11.20;;;;;;;1.36;49.55;95453.00;5104541;28;20034;-70
2023/03/13 05:18:28;;;;;;;17.98;10.15;;;;;;;1.41;49.40;95452.69;5105775;28;20020;-71
2023/03/13 05:20:53;;;;;;;16.42;10.63;;;;;;;1.46;49.28;95460.50;5105860;27;20054;-71
2023/03/13 05:23:18;;;;;;;17.55;11.00;;;;;;;1.50;49.32;95472.97;5086832;28;20110;-70
2023/03/13 05:25:44;;;;;;;17.42;11.15;;;;;;;1.56;49.21;95468.00;5106319;28;20023;-70
2023/03/13 05:28:09;;;;;;;21.98;13.32;;;;;;;1.50;49.12;95462.13;5105726;28;20110;-71
2023/03/13 05:30:35;;;;;;;20.52;13.48;;;;;;;1.63;49.19;95467.31;5105550;28;20024;-72
2023/03/13 05:33:00;;;;;;;23.60;14.75;;;;;;;1.65;49.16;95467.72;5104144;28;20039;-71
2023/03/13 05:35:25;;;;;;;27.80;17.67;;;;;;;1.70;48.99;95472.84;5105589;28;20023;-70
2023/03/13 05:37:51;;;;;;;31.92;17.20;;;;;;;1.71;49.06;95475.16;5105569;28;20371;-70
2023/03/13 05:40:16;;;;;;;28.08;17.02;;;;;;;1.71;49.38;95483.31;5104044;28;20024;-70
2023/03/13 05:42:42;;;;;;;26.23;16.13;;;;;;;1.75;48.99;95484.16;5105086;28;20406;-70
2023/03/13 05:45:08;;;;;;;19.88;13.23;;;;;;;1.78;48.83;95486.13;5103832;28;20077;-71
2023/03/13 05:47:35;;;;;;;16.08;10.73;;;;;;;1.80;48.82;95489.25;5105416;28;20028;-70
2023/03/13 05:50:00;;;;;;;14.10;9.90;;;;;;;1.81;48.58;95490.81;5103709;28;20522;-69
2023/03/13 05:52:25;;;;;;;17.05;10.73;;;;;;;1.82;48.53;95486.94;5104712;28;20110;-70
2023/03/13 05:54:51;;;;;;;17.92;11.40;;;;;;;1.90;48.39;95487.84;5103883;28;20080;-70
2023/03/13 05:57:16;;;;;;;15.10;10.93;;;;;;;1.95;48.25;95498.38;5105432;28;20034;-70
2023/03/13 05:59:42;;;;;;;15.32;11.63;;;;;;;1.99;48.40;95499.19;5104807;28;20554;-69
2023/03/13 06:02:07;;;;;;;16.45;10.60;;;;;;;2.02;48.40;95498.47;5103894;28;20023;-71
2023/03/13 06:04:34;;;;;;;15.30;10.10;;;;;;;2.04;48.06;95506.22;5106956;28;20026;-69
2023/03/13 06:06:59;;;;;;;16.35;9.88;;;;;;;2.05;48.01;95505.06;5105263;28;20051;-70
2023/03/13 06:09:25;;;;;;;14.88;9.07;;;;;;;2.07;48.07;95503.56;5103937;28;20076;-70
2023/03/13 06:11:50;;;;;;;14.10;8.73;;;;;;;2.08;48.14;95490.78;5104759;28;20023;-70
2023/03/13 06:14:15;;;;;;;12.32;9.55;;;;;;;2.07;47.92;95492.72;5105236;28;20066;-73
2023/03/13 06:16:41;;;;;;;16.77;11.15;;;;;;;2.12;47.96;95503.25;5104734;28;20023;-70
2023/03/13 06:19:06;;;;;;;17.58;11.10;;;;;;;2.17;47.71;95498.63;5103873;28;20019;-71
2023/03/13 06:21:32;;;;;;;19.25;11.55;;;;;;;2.23;47.49;95500.63;5104916;28;20065;-71
2023/03/13 06:23:57;;;;;;;20.25;11.07;;;;;;;2.26;47.49;95485.56;5104442;28;20108;-71
2023/03/13 06:26:24;;;;;;;18.45;11.00;;;;;;;2.42;47.62;95504.38;5086684;28;20027;-70
2023/03/13 06:28:50;;;;;;;19.70;11.82;;;;;;;2.43;47.53;95495.06;5103386;28;20182;-70
2023/03/13 06:31:15;;;;;;;17.85;10.50;;;;;;;2.44;47.10;95480.34;5103265;28;20039;-70
2023/03/13 06:33:41;;;;;;;15.20;10.18;;;;;;;2.61;46.65;95485.19;5103097;28;20515;-70
2023/03/13 06:36:07;;;;;;;15.13;9.30;;;;;;;2.64;46.91;95474.38;5103911;28;20108;-70
2023/03/13 06:38:32;;;;;;;12.52;8.70;;;;;;;2.67;46.32;95479.03;5105075;28;20020;-69
2023/03/13 06:40:58;;;;;;;12.02;8.85;;;;;;;2.72;45.85;95499.66;5104554;28;20031;-71
2023/03/13 06:43:23;;;;;;;12.40;8.43;;;;;;;2.73;46.04;95495.78;5104753;28;20047;-72
2023/03/13 06:45:49;;;;;;;14.02;8.85;;;;;;;2.80;46.11;95495.06;5104456;28;20036;-71
2023/03/13 06:48:14;;;;;;;18.85;9.77;;;;;;;2.90;45.82;95497.88;5103417;28;20394;-70
2023/03/13 06:50:40;;;;;;;17.60;10.98;;;;;;;2.99;45.64;95505.75;5104643;28;20538;-69
2023/03/13 06:53:06;;;;;;;19.30;10.65;;;;;;;3.06;45.46;95494.94;5103263;28;20031;-71
2023/03/13 06:55:32;;;;;;;15.75;10.07;;;;;;;3.17;45.14;95495.03;5103216;28;20030;-69
2023/03/13 06:57:58;;;;;;;17.15;10.20;;;;;;;3.26;44.94;95489.25;5104698;28;20030;-70
2023/03/13 07:00:23;;;;;;;15.73;10.23;;;;;;;3.37;44.81;95492.84;5103331;28;20555;-70
2023/03/13 07:02:49;;;;;;;17.67;10.77;;;;;;;3.42;44.47;95487.06;5104401;28;20024;-70
2023/03/13 07:05:15;;;;;;;20.67;10.93;;;;;;;3.52;44.13;95496.47;5103598;28;20020;-71
2023/03/13 07:07:42;;;;;;;15.52;10.43;;;;;;;3.63;43.97;95491.88;5105038;28;20023;-70
2023/03/13 07:10:09;;;;;;;14.45;11.43;;;;;;;3.72;43.90;95493.09;5104071;28;20114;-70
2023/03/13 07:12:35;;;;;;;16.38;10.18;;;;;;;3.78;43.62;95498.94;5107339;28;20031;-70
2023/03/13 07:15:00;;;;;;;17.55;10.20;;;;;;;3.85;43.61;95488.13;5108459;28;20492;-69
2023/03/13 07:17:26;;;;;;;14.63;9.80;;;;;;;3.96;43.56;95488.97;5108631;28;20027;-70
2023/03/13 07:19:51;;;;;;;17.35;10.38;;;;;;;4.04;43.82;95489.78;5108173;28;20031;-71
2023/03/13 07:22:17;;;;;;;16.67;10.38;;;;;;;4.17;43.47;95482.06;5108568;28;20060;-70
2023/03/13 07:24:42;;;;;;;16.33;9.38;;;;;;;4.21;43.08;95488.31;5106395;28;20032;-70
2023/03/13 07:27:07;;;;;;;11.63;8.32;;;;;;;4.20;42.87;95481.31;5106512;28;20053;-74
2023/03/13 07:29:33;;;;;;;16.25;9.93;;;;;;;4.26;42.88;95483.28;5109252;28;20015;-70
2023/03/13 07:31:58;;;;;;;14.45;9.07;;;;;;;4.39;43.06;95486.44;5105701;28;20023;-70
2023/03/13 07:34:24;;;;;;;15.05;8.88;;;;;;;4.49;42.70;95482.19;5107435;28;20066;-73
2023/03/13 07:36:49;;;;;;;13.48;8.60;;;;;;;4.59;42.14;95480.66;5105986;28;20020;-70
2023/03/13 07:39:15;;;;;;;10.68;8.27;;;;;;;4.64;42.23;95483.00;5108264;28;20038;-69
2023/03/13 07:41:41;;;;;;;14.70;8.63;;;;;;;4.64;42.32;95496.63;5107527;28;20046;-71
2023/03/13 07:44:06;;;;;;;14.68;8.63;;;;;;;4.70;42.29;95489.63;5108003;28;20047;-69
2023/03/13 07:46:31;;;;;;;13.98;8.88;;;;;;;4.85;41.85;95483.06;5106239;28;20028;-70
2023/03/13 07:48:57;;;;;;;14.45;9.23;;;;;;;4.97;41.89;95479.19;5106271;28;20154;-70
2023/03/13 07:51:24;;;;;;;11.75;8.43;;;;;;;5.09;41.39;95475.31;5107699;28;20020;-70
2023/03/13 07:53:50;;;;;;;11.57;8.05;;;;;;;5.19;40.91;95477.28;5106411;28;20023;-70
2023/03/13 07:56:18;;;;;;;10.35;7.57;;;;;;;5.28;41.13;95470.28;5106495;28;20031;-71
2023/03/13 07:58:44;;;;;;;12.18;7.80;;;;;;;5.39;41.05;95474.94;5107847;28;20049;-70
2023/03/13 08:01:24;;;;;;;12.90;6.95;;;;;;;5.56;41.57;95471.41;5107632;28;20440;-70
2023/03/13 08:03:50;;;;;;;9.30;6.78;;;;;;;5.82;40.53;95472.94;5107249;28;20023;-70
2023/03/13 08:06:18;;;;;;;12.27;7.80;;;;;;;5.96;40.17;95472.94;5106309;28;20192;-70
2023/03/13 08:08:43;;;;;;;13.02;8.07;;;;;;;6.17;39.62;95469.38;5106353;28;20030;-71
2023/03/13 08:11:12;;;;;;;12.20;8.23;;;;;;;6.35;39.06;95467.34;5107498;28;20023;-69
2023/03/13 08:13:37;;;;;;;13.27;8.15;;;;;;;6.49;38.75;95468.47;5106889;28;20409;-70
2023/03/13 08:16:14;;;;;;;12.20;7.63;;;;;;;6.69;38.30;95468.75;5105909;28;20512;-70
2023/03/13 08:18:42;;;;;;;10.90;7.30;;;;;;;6.92;37.86;95471.75;5106108;28;20034;-70
2023/03/13 08:21:10;;;;;;;9.13;7.13;;;;;;;7.14;37.64;95473.16;5106869;27;20024;-72
2023/03/13 08:23:36;;;;;;;10.80;7.10;;;;;;;7.33;36.90;95471.84;5105111;28;20019;-70
2023/03/13 08:26:07;;;;;;;8.45;6.88;;;;;;;7.55;36.45;95477.94;5107266;28;20030;-70
2023/03/13 08:28:33;;;;;;;9.90;7.05;;;;;;;7.79;36.02;95481.63;5107602;28;20024;-70
2023/03/13 08:31:06;;;;;;;11.00;7.72;;;;;;;7.92;35.22;95465.47;5106986;28;20027;-70
2023/03/13 08:33:31;;;;;;;10.85;6.60;;;;;;;8.14;35.00;95475.03;5105761;28;20034;-70
2023/03/13 08:35:56;;;;;;;10.63;6.82;;;;;;;8.41;34.62;95482.56;5107192;28;20019;-70
2023/03/13 08:38:22;;;;;;;11.90;7.07;;;;;;;8.68;34.37;95480.69;5105560;28;20019;-71
2023/03/13 08:40:47;;;;;;;7.82;6.20;;;;;;;9.01;33.78;95476.31;5107013;28;20039;-70
2023/03/13 08:43:13;;;;;;;8.77;6.75;;;;;;;9.35;33.46;95466.41;5106498;28;20043;-71
2023/03/13 08:45:38;;;;;;;8.40;6.70;;;;;;;9.65;32.99;95463.56;5107290;28;20027;-70
2023/03/13 08:48:03;;;;;;;7.20;5.82;;;;;;;10.04;32.43;95475.84;5106629;28;20422;-70
2023/03/13 08:50:29;;;;;;;8.05;6.22;;;;;;;10.43;31.89;95466.88;5106917;28;20019;-70
2023/03/13 08:52:54;;;;;;;9.07;6.78;;;;;;;10.66;31.07;95460.53;5106963;28;20047;-70
2023/03/13 08:55:20;;;;;;;10.52;6.22;;;;;;;10.93;30.49;95465.09;5106375;28;20073;-71
2023/03/13 08:57:45;;;;;;;9.13;6.47;;;;;;;11.19;30.29;95464.09;5106994;28;20023;-70
2023/03/13 09:00:12;;;;;;;7.60;6.00;;;;;;;11.50;29.75;95463.78;5106118;28;20078;-71
2023/03/13 09:02:38;;;;;;;9.32;6.03;;;;;;;11.70;29.26;95476.28;5106402;28;20055;-70
2023/03/13 09:05:03;;;;;;;11.25;6.75;;;;;;;12.02;29.15;95471.19;5106198;28;20066;-70
2023/03/13 09:07:29;;;;;;;8.43;6.90;;;;;;;12.28;28.42;95478.38;5105263;28;20023;-72
2023/03/13 09:09:54;;;;;;;6.70;6.00;;;;;;;12.46;28.06;95478.66;5106614;28;20031;-71
2023/03/13 09:12:19;;;;;;;8.57;6.30;;;;;;;12.81;27.60;95475.34;5106081;28;20020;-71
2023/03/13 09:14:45;;;;;;;10.30;6.47;;;;;;;13.13;27.03;95468.84;5105421;28;20445;-70
2023/03/13 09:17:10;;;;;;;8.05;6.53;;;;;;;13.37;26.41;95472.13;5104646;28;20024;-70
2023/03/13 09:19:36;;;;;;;9.57;8.07;;;;;;;13.69;26.26;95468.31;5106804;27;20119;-72
2023/03/13 09:22:01;;;;;;;8.20;6.88;;;;;;;14.02;25.92;95455.00;5104842;28;20031;-72
2023/03/13 09:24:26;;;;;;;8.35;6.75;;;;;;;14.35;26.19;95458.97;5105958;28;20108;-72
2023/03/13 09:26:52;;;;;;;9.63;6.57;;;;;;;14.74;25.05;95467.88;5104845;28;20467;-71
2023/03/13 09:29:17;;;;;;;11.25;7.88;;;;;;;15.00;24.39;95462.97;5106268;28;20098;-70
2023/03/13 09:31:43;;;;;;;11.90;7.97;;;;;;;15.30;24.81;95469.72;5105007;28;20051;-71
2023/03/13 09:34:08;;;;;;;9.05;6.97;;;;;;;15.51;24.24;95465.34;5104094;28;20118;-72
2023/03/13 09:36:34;;;;;;;9.82;7.65;;;;;;;15.78;23.87;95461.16;5104070;28;20030;-71
2023/03/13 09:38:59;;;;;;;7.65;6.68;;;;;;;15.98;23.94;95463.50;5105678;28;20106;-69
2023/03/13 09:41:35;;;;;;;10.57;7.50;;;;;;;16.22;23.52;95456.13;5105196;28;20077;-71
2023/03/13 09:44:04;;;;;;;10.73;7.07;;;;;;;16.46;23.19;95450.75;5105753;28;20054;-70
2023/03/13 09:46:38;;;;;;;7.15;6.20;;;;;;;16.62;22.18;95436.53;5105665;28;20070;-70
2023/03/13 09:49:21;;;;;;;7.90;6.68;;;;;;;16.59;22.37;95443.03;5087473;28;20054;-71
2023/03/13 09:51:50;;;;;;;10.63;7.43;;;;;;;16.71;22.84;95447.69;5105732;28;20034;-70
2023/03/13 09:54:25;;;;;;;8.15;6.53;;;;;;;17.05;22.57;95445.75;5104052;28;20092;-71
2023/03/13 09:57:10;;;;;;;8.75;7.07;;;;;;;17.47;21.81;95448.53;5104226;28;20020;-70
2023/03/13 09:59:42;;;;;;;9.13;6.90;;;;;;;17.84;21.18;95455.97;5104855;28;20036;-70
2023/03/13 10:02:33;;;;;;;6.88;6.13;;;;;;;18.13;21.08;95442.19;5105755;28;20027;-72
2023/03/13 10:05:14;;;;;;;9.13;6.30;;;;;;;18.64;20.65;95429.25;5088533;28;20031;-71
2023/03/13 10:07:39;;;;;;;8.40;6.85;;;;;;;19.04;20.48;95435.09;5107987;28;20065;-70
2023/03/13 10:10:21;;;;;;;10.15;8.25;;;;;;;19.29;19.90;95433.72;5104145;28;20429;-70
2023/03/13 10:12:48;;;;;;;8.85;7.22;;;;;;;19.20;19.60;95428.25;5104019;28;20027;-71
2023/03/13 10:15:32;;;;;;;8.45;6.20;;;;;;;19.32;19.87;95420.81;5104018;28;20047;-70
2023/03/13 10:18:02;;;;;;;8.10;6.78;;;;;;;19.42;19.48;95410.34;5105222;28;20024;-71
2023/03/13 10:20:33;;;;;;;8.70;7.32;;;;;;;19.65;20.02;95405.88;5103271;28;20541;-70
2023/03/13 10:23:04;;;;;;;9.88;8.50;;;;;;;20.08;19.72;95413.34;5103698;28;20088;-70
2023/03/13 10:25:32;;;;;;;8.52;6.90;;;;;;;20.43;19.09;95404.88;5103869;28;20043;-70
2023/03/13 10:27:58;;;;;;;9.98;6.90;;;;;;;20.65;18.85;95398.78;5105280;28;20178;-70
2023/03/13 10:30:26;;;;;;;9.10;7.07;;;;;;;21.03;19.05;95396.09;5104942;28;20107;-70
2023/03/13 10:33:07;;;;;;;12.05;7.43;;;;;;;21.31;17.39;95393.56;5105016;28;20054;-69
2023/03/13 10:35:38;;;;;;;9.23;8.10;;;;;;;20.95;17.73;95388.16;5104577;28;20016;-69
2023/03/13 10:38:12;;;;;;;8.60;7.75;;;;;;;20.62;18.05;95374.63;5104968;28;20016;-70
2023/03/13 10:40:37;;;;;;;10.30;7.97;;;;;;;20.36;18.08;95377.38;5104525;28;20020;-70
2023/03/13 10:43:20;;;;;;;11.77;7.63;;;;;;;20.04;18.39;95370.16;5103481;28;20053;-71
2023/03/13 10:45:46;;;;;;;11.73;6.95;;;;;;;20.15;19.09;95373.06;5103963;28;20024;-71
2023/03/13 10:48:14;;;;;;;10.40;7.22;;;;;;;20.84;18.91;95368.50;5111373;28;20039;-70
2023/03/13 10:50:45;;;;;;;9.35;7.70;;;;;;;21.34;17.88;95375.78;5109880;28;20016;-71
2023/03/13 10:53:35;;;;;;;10.25;6.85;;;;;;;22.29;17.10;95367.91;5110400;28;20039;-70
2023/03/13 10:56:15;;;;;;;8.05;7.00;;;;;;;23.07;16.35;95355.38;5106467;27;20559;-71
2023/03/13 10:58:43;;;;;;;12.00;7.75;;;;;;;23.86;16.01;95359.63;5110789;28;20043;-72
2023/03/13 11:01:15;;;;;;;9.65;7.82;;;;;;;24.52;15.15;95349.41;5110676;28;20482;-71
2023/03/13 11:03:41;;;;;;;8.43;7.63;;;;;;;25.37;14.71;95341.91;5111836;27;20016;-71
2023/03/13 11:06:34;;;;;;;8.02;7.22;;;;;;;26.21;13.76;95355.13;5110175;28;20051;-71
2023/03/13 11:09:12;;;;;;;9.68;7.28;;;;;;;27.59;12.53;95343.66;5110576;28;20015;-70
2023/03/13 11:11:52;;;;;;;8.93;7.30;;;;;;;28.39;12.22;95344.47;5110164;28;20027;-70
2023/03/13 11:14:20;;;;;;;9.02;7.10;;;;;;;29.43;11.55;95335.41;5092767;28;20040;-72
2023/03/13 11:16:48;;;;;;;7.70;7.00;;;;;;;30.09;10.64;95342.69;5111268;27;20068;-71
2023/03/13 11:19:37;;;;;;;10.65;7.68;;;;;;;30.75;10.40;95342.13;5109883;28;20031;-71
2023/03/13 11:22:12;;;;;;;8.18;7.38;;;;;;;30.99;10.10;95331.59;5110252;28;20036;-70
2023/03/13 11:25:03;;;;;;;9.00;7.75;;;;;;;31.87;9.73;95332.06;5111612;27;20023;-70
2023/03/13 11:27:37;;;;;;;8.77;7.15;;;;;;;31.69;9.79;95333.94;5111571;27;20148;-70
2023/03/13 11:30:24;;;;;;;11.02;8.75;;;;;;;31.25;9.49;95327.69;5110204;28;20023;-70
2023/03/13 11:33:31;;;;;;;10.00;9.00;;;;;;;29.45;10.49;95317.84;5111252;27;20027;-70
2023/03/13 11:36:14;;;;;;;11.50;8.95;;;;;;;30.05;10.45;95308.28;5067694;28;20369;-71